Time;durP1;ratioP1;P1;durP2;ratioP2;P2;SDS_P1;SDS_P2;PMS_P1;PMS_P2;Temp;Humidity;BMP_temperature;BMP_pressure;BME280_temperature;BME280_humidity;BME280_pressure;Samples;Min_cycle;Max_cycle;Signal;HPM_P1;HPM_P2
2022/08/08 00:01:11;;;;;;;2.57;2.00;;;;;;;15.77;60.15;101590.78;5057449;28;20193;-82
2022/08/08 00:03:47;;;;;;;2.30;1.73;;;;;;;15.73;60.56;101595.53;5057062;28;20272;-82
2022/08/08 00:06:26;;;;;;;2.80;2.00;;;;;;;15.68;60.59;101594.97;5054023;28;20285;-82
2022/08/08 00:09:02;;;;;;;3.10;2.37;;;;;;;15.63;60.86;101599.78;5053264;28;20194;-82
2022/08/08 00:11:37;;;;;;;2.33;2.13;;;;;;;15.57;60.72;101595.72;5057504;28;20297;-83
2022/08/08 00:14:07;;;;;;;4.83;2.77;;;;;;;15.49;61.11;101592.66;5056475;28;20228;-82
2022/08/08 00:16:42;;;;;;;2.10;1.80;;;;;;;15.44;61.23;101600.16;5050931;28;20269;-82
2022/08/08 00:19:15;;;;;;;2.63;2.43;;;;;;;15.37;61.41;101596.22;5054448;28;20215;-82
2022/08/08 00:21:55;;;;;;;3.17;2.30;;;;;;;15.31;61.73;101596.63;5056769;28;20197;-83
2022/08/08 00:24:30;;;;;;;2.23;2.03;;;;;;;15.25;61.93;101600.56;5057420;28;20221;-83
2022/08/08 00:27:01;;;;;;;3.43;2.10;;;;;;;15.22;62.06;101597.25;5056984;28;20296;-83
2022/08/08 00:29:32;;;;;;;2.53;2.00;;;;;;;15.20;62.27;101592.00;5057406;28;20648;-83
2022/08/08 00:32:04;;;;;;;2.27;2.07;;;;;;;15.17;62.29;101592.19;5057551;28;20185;-82
2022/08/08 00:35:13;;;;;;;2.30;2.10;;;;;;;15.14;62.66;101589.72;5056603;28;20229;-82
2022/08/08 00:37:49;;;;;;;3.17;2.40;;;;;;;15.10;62.07;101595.38;5056912;28;20282;-82
2022/08/08 00:41:06;;;;;;;2.47;2.23;;;;;;;15.02;62.53;101581.63;5057386;28;20192;-83
2022/08/08 00:44:02;;;;;;;2.63;2.40;;;;;;;14.99;62.78;101589.88;5057338;28;20221;-83
2022/08/08 00:46:52;;;;;;;3.00;2.23;;;;;;;14.93;62.43;101580.41;5013123;28;20233;-83
2022/08/08 00:49:37;;;;;;;2.43;2.03;;;;;;;14.88;62.28;101583.38;5057708;28;20245;-83
2022/08/08 00:52:12;;;;;;;3.50;2.47;;;;;;;14.88;62.72;101590.56;5057387;28;20281;-83
2022/08/08 00:55:10;;;;;;;2.47;2.10;;;;;;;14.87;62.89;101588.84;5057673;28;20235;-83
2022/08/08 00:58:16;;;;;;;2.30;2.10;;;;;;;14.84;62.88;101583.72;5058067;28;20196;-83
2022/08/08 01:00:51;;;;;;;2.90;2.60;;;;;;;14.81;63.25;101594.66;5047300;28;20216;-83
2022/08/08 01:03:59;;;;;;;2.80;2.20;;;;;;;14.74;63.05;101585.28;5057410;28;20220;-82
2022/08/08 01:07:01;;;;;;;3.10;2.47;;;;;;;14.67;63.56;101586.66;5058834;28;20220;-82
2022/08/08 01:09:58;;;;;;;3.43;2.50;;;;;;;14.62;64.24;101588.78;5054718;28;20201;-82
2022/08/08 01:12:41;;;;;;;2.97;2.70;;;;;;;14.60;64.65;101591.53;5053485;28;20202;-82
2022/08/08 01:15:38;;;;;;;4.40;2.90;;;;;;;14.59;64.76;101582.66;5056338;28;20198;-82
2022/08/08 01:18:35;;;;;;;2.63;2.43;;;;;;;14.55;64.72;101578.44;5056467;28;20210;-82
2022/08/08 01:21:34;;;;;;;3.70;2.70;;;;;;;14.50;64.84;101588.63;5055951;28;20198;-83
2022/08/08 01:24:28;;;;;;;3.13;2.60;;;;;;;14.45;64.58;101593.41;5049769;28;20671;-83
2022/08/08 01:27:22;;;;;;;3.13;2.53;;;;;;;14.41;64.93;101591.88;5054782;28;20229;-83
2022/08/08 01:30:37;;;;;;;3.83;2.50;;;;;;;14.36;64.75;101588.59;5060679;28;20204;-83
2022/08/08 01:33:41;;;;;;;3.80;2.80;;;;;;;14.29;64.77;101600.69;5061298;28;20217;-83
2022/08/08 01:36:39;;;;;;;2.83;2.53;;;;;;;14.22;64.39;101600.19;5061579;28;20220;-82
2022/08/08 01:39:25;;;;;;;3.90;2.40;;;;;;;14.13;64.54;101602.63;5061081;28;20551;-82
2022/08/08 01:42:01;;;;;;;2.73;2.53;;;;;;;14.04;64.37;101597.81;5060738;28;20212;-83
2022/08/08 01:44:40;;;;;;;3.10;2.50;;;;;;;13.95;64.83;101599.28;5060690;28;20707;-83
2022/08/08 01:47:18;;;;;;;3.00;2.70;;;;;;;13.92;65.38;101603.94;5060083;28;20209;-82
2022/08/08 01:49:59;;;;;;;3.50;2.93;;;;;;;13.84;65.19;101602.59;5049121;28;20289;-83
2022/08/08 01:52:40;;;;;;;3.47;2.80;;;;;;;13.78;65.56;101597.63;5057816;28;20182;-82
2022/08/08 01:55:15;;;;;;;2.70;2.50;;;;;;;13.74;65.98;101601.44;5060141;28;20194;-83
2022/08/08 01:57:52;;;;;;;4.60;3.13;;;;;;;13.72;66.31;101598.00;5060312;28;20200;-82
2022/08/08 02:00:23;;;;;;;3.30;2.80;;;;;;;13.71;66.57;101598.97;5061486;28;20651;-82
2022/08/08 02:03:10;;;;;;;4.37;2.60;;;;;;;13.71;66.53;101596.28;5061340;28;20237;-82
2022/08/08 02:05:51;;;;;;;3.03;2.73;;;;;;;13.71;66.65;101595.41;5061007;28;20186;-82
2022/08/08 02:08:23;;;;;;;3.87;3.13;;;;;;;13.68;66.91;101596.47;5061525;28;20204;-82
2022/08/08 02:11:01;;;;;;;3.13;2.80;;;;;;;13.65;66.74;101598.47;5060272;28;20186;-82
2022/08/08 02:13:35;;;;;;;3.90;3.07;;;;;;;13.60;67.22;101598.75;5059047;28;20240;-82
2022/08/08 02:16:13;;;;;;;3.87;3.00;;;;;;;13.57;66.93;101600.75;5059812;28;20215;-82
2022/08/08 02:18:43;;;;;;;3.20;2.90;;;;;;;13.54;66.86;101596.44;5058278;28;20197;-82
2022/08/08 02:24:13;;;;;;;3.57;3.27;;;;;;;13.50;67.62;101601.13;5038508;28;20327;-83
2022/08/08 02:26:46;;;;;;;4.10;3.20;;;;;;;13.48;67.17;101604.84;5049998;28;20229;-83
2022/08/08 02:29:25;;;;;;;3.17;2.87;;;;;;;13.46;67.65;101604.06;5060572;28;20590;-83
2022/08/08 02:32:05;;;;;;;3.23;2.93;;;;;;;13.44;67.33;101600.63;5059701;28;20197;-83
2022/08/08 02:34:58;;;;;;;3.73;3.37;;;;;;;13.39;67.68;101610.75;5058750;28;20285;-83
2022/08/08 02:37:37;;;;;;;3.47;2.97;;;;;;;13.32;67.77;101604.03;5046547;28;20251;-83
2022/08/08 02:40:11;;;;;;;3.43;2.70;;;;;;;13.29;68.24;101599.72;5064570;28;20577;-83
2022/08/08 02:43:35;;;;;;;3.60;2.90;;;;;;;13.26;67.81;101599.03;5069136;28;20207;-83
2022/08/08 02:46:53;;;;;;;4.03;2.73;;;;;;;13.20;68.35;101606.50;5057021;28;20200;-83
2022/08/08 02:49:58;;;;;;;4.27;3.37;;;;;;;13.18;68.74;101613.75;5030644;28;20713;-82
2022/08/08 02:52:51;;;;;;;5.70;3.57;;;;;;;13.18;68.82;101616.44;5055419;28;20196;-82
2022/08/08 02:56:07;;;;;;;4.37;3.97;;;;;;;13.16;68.93;101623.69;5058429;28;20633;-83
2022/08/08 02:59:12;;;;;;;7.77;4.13;;;;;;;13.13;69.19;101610.44;4996880;28;20662;-83
2022/08/08 03:02:20;;;;;;;5.20;3.90;;;;;;;13.11;69.20;101617.69;4996614;28;20680;-83
2022/08/08 03:05:27;;;;;;;4.20;3.60;;;;;;;13.08;69.66;101622.34;5057974;28;20210;-82
2022/08/08 03:08:32;;;;;;;4.13;3.27;;;;;;;13.06;69.87;101622.47;5037297;28;20675;-82
2022/08/08 03:11:37;;;;;;;4.13;3.27;;;;;;;13.00;69.69;101608.59;5051775;28;20258;-83
2022/08/08 03:14:26;;;;;;;5.67;3.83;;;;;;;12.95;69.70;101613.31;5030191;28;20225;-81
2022/08/08 03:16:58;;;;;;;4.17;3.77;;;;;;;12.87;69.50;101616.47;5051141;28;20212;-81
2022/08/08 03:19:47;;;;;;;3.80;3.40;;;;;;;12.81;70.16;101617.66;5056532;28;20585;-81
2022/08/08 03:22:13;;;;;;;4.50;3.63;;;;;;;12.77;69.82;101612.56;5055559;28;20219;-82
2022/08/08 03:24:41;;;;;;;5.20;4.67;;;;;;;12.75;70.25;101606.44;5055896;28;20234;-81
2022/08/08 03:27:16;;;;;;;5.03;4.53;;;;;;;12.73;70.51;101609.22;5055864;28;20205;-81
2022/08/08 03:29:47;;;;;;;4.47;4.07;;;;;;;12.69;70.13;101612.16;5055813;28;20199;-81
2022/08/08 03:34:58;;;;;;;4.63;4.20;;;;;;;12.58;70.92;101617.22;5052152;28;20681;-81
2022/08/08 03:37:27;;;;;;;5.67;3.97;;;;;;;12.56;71.39;101620.00;5055872;28;20316;-81
2022/08/08 03:39:55;;;;;;;4.00;3.60;;;;;;;12.56;71.45;101622.66;5056797;28;20800;-81
2022/08/08 03:42:22;;;;;;;5.27;4.30;;;;;;;12.55;71.44;101617.41;5056078;28;20289;-82
2022/08/08 03:44:48;;;;;;;8.40;3.70;;;;;;;12.54;71.40;101623.72;5056581;28;20208;-81
2022/08/08 03:47:20;;;;;;;6.43;4.13;;;;;;;12.52;71.18;101629.16;5055732;28;20564;-82
2022/08/08 03:49:47;;;;;;;8.13;4.97;;;;;;;12.46;71.15;101627.69;5055788;28;20197;-81
2022/08/08 03:52:14;;;;;;;6.87;5.47;;;;;;;12.43;71.66;101633.19;5061828;28;20211;-81
2022/08/08 03:54:43;;;;;;;5.70;5.07;;;;;;;12.40;71.83;101629.81;5055652;28;20239;-81
2022/08/08 03:57:12;;;;;;;6.03;4.53;;;;;;;12.36;71.89;101629.13;5055483;28;20283;-82
2022/08/08 03:59:38;;;;;;;4.80;3.97;;;;;;;12.31;71.80;101635.69;5057367;28;20224;-81
2022/08/08 04:02:15;;;;;;;4.90;4.07;;;;;;;12.25;72.04;101630.66;5056719;28;20789;-80
2022/08/08 04:04:41;;;;;;;5.57;4.50;;;;;;;12.23;72.42;101643.22;5055414;28;20228;-82
2022/08/08 04:07:08;;;;;;;5.50;4.70;;;;;;;12.20;72.67;101644.25;5056949;28;20205;-83
2022/08/08 04:09:35;;;;;;;5.00;4.10;;;;;;;12.20;72.82;101651.41;5056298;28;20224;-83
2022/08/08 04:12:02;;;;;;;6.80;4.83;;;;;;;12.21;73.39;101645.13;5055782;28;20248;-83
2022/08/08 04:14:29;;;;;;;4.77;4.27;;;;;;;12.22;73.48;101653.06;5056057;28;20330;-82
2022/08/08 04:16:56;;;;;;;7.70;3.97;;;;;;;12.22;73.52;101636.16;5055939;28;20235;-82
2022/08/08 04:19:22;;;;;;;4.63;3.67;;;;;;;12.22;73.38;101650.38;5055713;28;20210;-83
2022/08/08 04:21:49;;;;;;;4.27;3.30;;;;;;;12.22;73.39;101658.41;5056242;28;20679;-82
2022/08/08 04:24:15;;;;;;;4.77;4.13;;;;;;;12.22;73.55;101642.38;5056853;28;20227;-82
2022/08/08 04:26:42;;;;;;;6.40;3.73;;;;;;;12.24;73.53;101652.97;5055755;28;20570;-82
2022/08/08 04:29:08;;;;;;;4.30;3.90;;;;;;;12.23;73.70;101644.09;5055434;28;20208;-82
2022/08/08 04:31:36;;;;;;;5.17;4.37;;;;;;;12.26;73.76;101665.31;5056885;28;20213;-82
2022/08/08 04:34:03;;;;;;;5.10;4.60;;;;;;;12.26;73.83;101659.09;5057581;28;20232;-82
2022/08/08 04:36:29;;;;;;;6.13;4.13;;;;;;;12.26;74.13;101653.75;5056768;28;20883;-82
2022/08/08 04:38:56;;;;;;;5.23;4.30;;;;;;;12.26;74.17;101656.44;5056044;28;20200;-82
2022/08/08 04:41:23;;;;;;;6.60;4.30;;;;;;;12.25;74.04;101666.25;5054967;28;20210;-83
2022/08/08 04:43:49;;;;;;;5.47;4.10;;;;;;;12.26;74.54;101665.31;5056595;28;20338;-82
2022/08/08 04:46:16;;;;;;;5.77;4.43;;;;;;;12.27;74.54;101667.03;5056776;28;20212;-81
2022/08/08 04:48:44;;;;;;;4.97;3.93;;;;;;;12.29;74.64;101669.63;5056520;28;20294;-82
2022/08/08 04:51:10;;;;;;;10.60;5.40;;;;;;;12.31;74.64;101667.72;5056278;28;20206;-82
2022/08/08 04:53:37;;;;;;;7.00;4.80;;;;;;;12.32;75.07;101664.13;5056304;28;20775;-82
2022/08/08 04:56:04;;;;;;;5.63;4.53;;;;;;;12.35;75.44;101663.97;5055682;28;20212;-82
2022/08/08 04:58:30;;;;;;;6.73;5.07;;;;;;;12.37;75.52;101667.38;5055696;28;20586;-81
2022/08/08 05:00:57;;;;;;;6.73;5.30;;;;;;;12.40;75.92;101667.22;5058414;28;20206;-82
2022/08/08 05:03:24;;;;;;;7.47;5.13;;;;;;;12.43;76.27;101675.06;5060493;28;20620;-82
2022/08/08 05:05:52;;;;;;;5.90;5.30;;;;;;;12.47;76.55;101668.63;5071380;28;20207;-81
2022/08/08 05:08:18;;;;;;;7.13;5.87;;;;;;;12.50;77.11;101669.31;5079964;28;20285;-82
2022/08/08 05:10:45;;;;;;;8.37;6.27;;;;;;;12.56;77.51;101669.91;5079751;28;20224;-82
2022/08/08 05:13:11;;;;;;;7.73;5.70;;;;;;;12.62;77.56;101681.13;5080122;28;20766;-82
2022/08/08 05:15:38;;;;;;;7.47;6.57;;;;;;;12.69;78.31;101681.66;5079650;28;20213;-82
2022/08/08 05:18:05;;;;;;;9.07;6.40;;;;;;;12.76;78.86;101675.00;5080509;28;20235;-83
2022/08/08 05:20:31;;;;;;;9.87;6.97;;;;;;;12.83;78.57;101676.41;5080167;28;20233;-83
2022/08/08 05:22:59;;;;;;;9.87;7.00;;;;;;;12.89;78.70;101673.38;5079498;28;20228;-82
2022/08/08 05:25:26;;;;;;;7.17;6.40;;;;;;;12.96;78.36;101676.56;5069994;28;20198;-82
2022/08/08 05:27:53;;;;;;;6.73;6.00;;;;;;;13.01;78.06;101680.69;5053942;28;20230;-82
2022/08/08 05:30:19;;;;;;;7.87;6.23;;;;;;;13.08;78.08;101674.03;5054999;28;20660;-82
2022/08/08 05:32:46;;;;;;;7.37;6.10;;;;;;;13.15;77.66;101679.94;5059619;28;20564;-82
2022/08/08 05:35:13;;;;;;;7.67;5.93;;;;;;;13.24;77.55;101670.53;5059034;28;20213;-82
2022/08/08 05:37:48;;;;;;;7.43;5.93;;;;;;;13.32;77.17;101674.47;5058444;28;20229;-82
2022/08/08 05:40:16;;;;;;;6.83;6.03;;;;;;;13.40;76.94;101677.56;5057772;28;20212;-82
2022/08/08 05:42:45;;;;;;;6.70;6.10;;;;;;;13.48;77.08;101677.97;5058067;28;20235;-82
2022/08/08 05:45:12;;;;;;;7.00;5.87;;;;;;;13.59;76.47;101676.47;5057724;28;20305;-82
2022/08/08 05:47:41;;;;;;;7.40;6.43;;;;;;;13.68;76.38;101682.13;5058599;28;20699;-83
2022/08/08 05:50:08;;;;;;;6.87;6.17;;;;;;;13.79;76.08;101679.66;5058250;28;20225;-82
2022/08/08 05:52:36;;;;;;;9.37;6.50;;;;;;;13.89;75.98;101680.84;5058096;28;20205;-83
2022/08/08 05:55:02;;;;;;;7.83;6.47;;;;;;;14.01;75.51;101687.25;5058355;28;20261;-82
2022/08/08 05:57:34;;;;;;;9.17;6.93;;;;;;;14.14;75.17;101682.03;5059243;28;20221;-83
2022/08/08 06:00:05;;;;;;;6.43;5.67;;;;;;;14.27;74.43;101684.78;5055719;28;20718;-82
2022/08/08 06:05:19;;;;;;;7.13;6.20;;;;;;;14.51;73.32;101680.63;5059047;28;20212;-82
2022/08/08 06:07:47;;;;;;;6.93;5.97;;;;;;;14.64;72.88;101678.00;5058956;28;20205;-83
2022/08/08 06:10:14;;;;;;;6.70;5.70;;;;;;;14.77;72.55;101686.97;5068167;28;20219;-82
2022/08/08 06:12:43;;;;;;;6.57;5.87;;;;;;;14.90;72.10;101685.22;5059013;28;20210;-82
2022/08/08 06:15:11;;;;;;;6.20;5.60;;;;;;;15.05;71.51;101680.69;5058098;28;20204;-84
2022/08/08 06:17:40;;;;;;;6.47;5.50;;;;;;;15.21;70.93;101681.41;5048373;28;20265;-81
2022/08/08 06:20:09;;;;;;;8.30;5.80;;;;;;;15.35;70.13;101686.72;5049047;28;20213;-83
2022/08/08 06:22:36;;;;;;;6.50;5.77;;;;;;;15.50;69.52;101690.19;5056155;28;20648;-83
2022/08/08 06:25:04;;;;;;;6.57;5.90;;;;;;;15.63;68.71;101683.91;5064240;28;20216;-83
2022/08/08 06:27:36;;;;;;;6.60;5.80;;;;;;;15.77;68.20;101691.00;5058789;28;20213;-83
2022/08/08 06:30:07;;;;;;;8.30;5.60;;;;;;;15.91;67.87;101680.19;5059032;28;20228;-83
2022/08/08 06:32:41;;;;;;;6.47;5.27;;;;;;;16.07;67.28;101689.88;5058735;28;20204;-84
2022/08/08 06:35:11;;;;;;;6.20;5.60;;;;;;;16.19;66.35;101686.31;5058140;28;20667;-83
2022/08/08 06:37:46;;;;;;;5.77;5.20;;;;;;;16.34;66.01;101690.59;5059172;28;20287;-83
2022/08/08 06:40:14;;;;;;;5.90;5.30;;;;;;;16.52;65.33;101691.13;5059262;28;20276;-84
2022/08/08 06:42:47;;;;;;;6.17;5.30;;;;;;;16.69;65.05;101698.88;5058782;28;20652;-83
2022/08/08 06:45:16;;;;;;;6.63;5.40;;;;;;;16.87;64.52;101702.91;5058720;28;20240;-83
2022/08/08 06:47:44;;;;;;;6.00;5.40;;;;;;;17.05;64.12;101699.84;5058017;28;20198;-83
2022/08/08 06:50:11;;;;;;;5.67;4.67;;;;;;;17.21;63.18;101690.50;5058134;28;20204;-81
2022/08/08 06:52:38;;;;;;;6.13;5.23;;;;;;;17.37;62.30;101698.31;5058804;28;20210;-81
2022/08/08 06:55:06;;;;;;;5.60;4.90;;;;;;;17.51;61.87;101700.81;5058044;28;20207;-81
2022/08/08 06:57:33;;;;;;;6.27;5.57;;;;;;;17.63;61.32;101701.72;5060611;28;20260;-83
2022/08/08 07:00:01;;;;;;;6.77;4.80;;;;;;;17.77;60.94;101708.78;5077962;28;20216;-81
2022/08/08 07:02:32;;;;;;;6.67;5.23;;;;;;;17.89;60.63;101707.84;5078472;28;20591;-81
2022/08/08 07:05:04;;;;;;;6.03;4.53;;;;;;;18.03;60.25;101715.72;5078618;28;20194;-81
2022/08/08 07:07:38;;;;;;;5.80;4.90;;;;;;;18.15;60.01;101712.06;5079281;28;20192;-82
2022/08/08 07:10:07;;;;;;;5.10;4.60;;;;;;;18.33;59.73;101713.31;5078483;28;20536;-82
2022/08/08 07:12:41;;;;;;;6.10;4.90;;;;;;;18.47;59.50;101714.91;5077666;28;20213;-81
2022/08/08 07:15:09;;;;;;;5.53;4.90;;;;;;;18.63;58.96;101723.50;5077698;28;20632;-81
2022/08/08 07:17:45;;;;;;;4.73;4.30;;;;;;;18.78;58.74;101724.13;5079414;28;20230;-82
2022/08/08 07:20:17;;;;;;;7.17;5.17;;;;;;;18.93;58.68;101714.78;5078726;28;20270;-83
2022/08/08 07:22:53;;;;;;;8.20;4.93;;;;;;;19.11;58.47;101709.72;5077037;28;20238;-83
2022/08/08 07:25:21;;;;;;;5.77;4.80;;;;;;;19.27;57.59;101718.28;5057511;28;20203;-83
2022/08/08 07:27:51;;;;;;;5.80;4.60;;;;;;;19.39;56.93;101709.13;5067224;28;20200;-83
2022/08/08 07:30:18;;;;;;;5.57;4.20;;;;;;;19.52;56.08;101709.03;5078046;28;20194;-83
2022/08/08 07:32:48;;;;;;;5.93;4.63;;;;;;;19.63;55.41;101713.50;5068993;28;20228;-83
2022/08/08 07:35:15;;;;;;;4.80;4.30;;;;;;;19.73;54.40;101715.28;5059156;28;20583;-83
2022/08/08 07:37:43;;;;;;;5.47;4.50;;;;;;;19.82;53.57;101716.34;5061789;28;20235;-84
2022/08/08 07:40:13;;;;;;;5.60;4.27;;;;;;;19.93;53.34;101713.59;5054277;28;20610;-85
2022/08/08 07:42:42;;;;;;;5.10;4.63;;;;;;;20.07;53.12;101717.78;5045614;28;20248;-83
2022/08/08 07:45:09;;;;;;;4.77;4.33;;;;;;;20.22;53.04;101718.34;5047029;28;20203;-84
2022/08/08 07:47:36;;;;;;;7.20;4.43;;;;;;;20.39;53.05;101720.47;5048867;28;20216;-84
2022/08/08 07:50:05;;;;;;;5.10;4.63;;;;;;;20.55;52.57;101720.81;5052003;28;20218;-84
2022/08/08 07:52:32;;;;;;;5.30;4.37;;;;;;;20.72;52.34;101730.16;5055368;28;20201;-84
2022/08/08 07:55:06;;;;;;;5.97;4.73;;;;;;;20.84;51.81;101723.63;5049240;28;20412;-83
2022/08/08 07:57:40;;;;;;;5.60;4.53;;;;;;;21.01;51.88;101730.22;5050165;28;20204;-83
2022/08/08 08:00:09;;;;;;;5.45;4.22;;;;;;;21.13;51.08;101721.88;5065753;28;20694;-84
2022/08/08 08:02:39;;;;;;;6.33;3.97;;;;;;;21.27;50.29;101734.19;5056444;28;20550;-82
2022/08/08 08:05:15;;;;;;;5.13;4.00;;;;;;;21.40;49.58;101725.78;5055453;28;20209;-82
2022/08/08 08:07:42;;;;;;;4.88;4.10;;;;;;;21.53;49.13;101729.06;5054865;28;20208;-82
2022/08/08 08:10:11;;;;;;;5.60;3.80;;;;;;;21.69;48.67;101731.19;5059125;28;20255;-82
2022/08/08 08:12:42;;;;;;;7.10;4.07;;;;;;;21.83;47.98;101736.22;5056581;28;20217;-82
2022/08/08 08:15:15;;;;;;;3.55;3.13;;;;;;;21.96;46.63;101739.47;5055120;28;20212;-82
2022/08/08 08:17:44;;;;;;;4.28;3.67;;;;;;;22.07;46.33;101742.06;5054529;28;20662;-82
2022/08/08 08:20:14;;;;;;;4.57;3.63;;;;;;;22.17;45.92;101734.78;5064324;28;20209;-82
2022/08/08 08:22:41;;;;;;;4.65;3.40;;;;;;;22.33;46.04;101736.00;5061325;28;20669;-82
2022/08/08 08:25:08;;;;;;;4.68;3.75;;;;;;;22.50;45.53;101738.81;5058041;28;20197;-83
2022/08/08 08:27:34;;;;;;;4.38;3.97;;;;;;;22.70;45.67;101741.47;5063237;28;20213;-81
2022/08/08 08:30:01;;;;;;;4.25;3.55;;;;;;;22.86;44.86;101730.84;5053040;28;20202;-82
2022/08/08 08:32:27;;;;;;;4.47;4.07;;;;;;;23.00;44.80;101732.19;5053429;28;20471;-83
2022/08/08 08:34:54;;;;;;;5.63;3.80;;;;;;;23.15;44.95;101741.53;5051235;28;20202;-82
2022/08/08 08:37:22;;;;;;;5.45;3.88;;;;;;;23.32;44.28;101731.69;5054505;28;20245;-83
2022/08/08 08:39:51;;;;;;;5.47;3.42;;;;;;;23.46;43.74;101740.19;5056998;28;20229;-83
2022/08/08 08:42:18;;;;;;;4.53;3.63;;;;;;;23.58;42.86;101726.41;5050766;28;20284;-84
2022/08/08 08:44:45;;;;;;;4.03;3.05;;;;;;;23.67;42.05;101726.28;5056008;28;20228;-83
2022/08/08 08:47:13;;;;;;;4.95;3.50;;;;;;;23.80;41.87;101734.09;5057622;28;20201;-83
2022/08/08 08:49:39;;;;;;;3.80;3.40;;;;;;;23.85;41.93;101729.84;5056037;28;20196;-83
2022/08/08 08:52:08;;;;;;;4.00;3.60;;;;;;;23.96;41.92;101739.66;5060062;28;20210;-83
2022/08/08 08:54:37;;;;;;;5.03;3.05;;;;;;;24.05;42.01;101733.25;5058722;28;20221;-83
2022/08/08 08:57:09;;;;;;;5.68;3.22;;;;;;;24.21;41.65;101733.38;5057599;28;20208;-83
2022/08/08 08:59:40;;;;;;;5.25;3.30;;;;;;;24.32;41.12;101735.03;5056721;28;20209;-83
2022/08/08 09:02:16;;;;;;;7.78;3.03;;;;;;;24.47;41.00;101730.69;5054564;28;20632;-85
2022/08/08 09:04:45;;;;;;;4.30;3.15;;;;;;;24.58;40.38;101730.41;5049799;28;20734;-83
2022/08/08 09:07:16;;;;;;;5.20;3.10;;;;;;;24.71;39.51;101723.66;5054275;28;20202;-83
2022/08/08 09:09:48;;;;;;;4.40;3.28;;;;;;;24.84;39.41;101722.19;5048052;28;20194;-83
2022/08/08 09:12:17;;;;;;;4.97;3.20;;;;;;;24.95;39.07;101720.19;5047121;28;20229;-83
2022/08/08 09:14:45;;;;;;;5.32;3.05;;;;;;;25.08;38.85;101721.44;5049112;28;20998;-84
2022/08/08 09:17:12;;;;;;;4.45;2.85;;;;;;;25.21;39.14;101723.72;5061599;28;20201;-84
2022/08/08 09:19:40;;;;;;;5.78;3.25;;;;;;;25.30;37.90;101714.50;5058717;28;20256;-84
2022/08/08 09:22:07;;;;;;;2.83;2.13;;;;;;;25.41;37.61;101724.25;5056019;28;20205;-84
2022/08/08 09:24:35;;;;;;;3.10;2.35;;;;;;;25.45;36.74;101723.75;5053037;28;20225;-83
2022/08/08 09:27:07;;;;;;;2.30;2.05;;;;;;;25.47;35.34;101724.44;5058365;28;20205;-83
2022/08/08 09:29:47;;;;;;;3.97;2.20;;;;;;;25.53;35.68;101710.13;5048033;28;20688;-83
2022/08/08 09:32:21;;;;;;;2.47;2.05;;;;;;;25.64;35.61;101716.28;5052203;28;20336;-83
2022/08/08 09:34:50;;;;;;;4.85;1.80;;;;;;;25.74;35.04;101722.44;5051252;28;20225;-83
2022/08/08 09:37:19;;;;;;;2.00;1.77;;;;;;;25.80;34.57;101716.28;5050957;28;20304;-84
2022/08/08 09:39:57;;;;;;;2.95;1.63;;;;;;;25.86;34.34;101718.34;5046606;28;20228;-81
2022/08/08 09:42:33;;;;;;;1.60;1.20;;;;;;;25.90;33.78;101717.00;5047931;28;20204;-81
2022/08/08 09:45:05;;;;;;;3.22;2.22;;;;;;;25.99;34.25;101715.94;5048241;28;20197;-82
2022/08/08 09:47:33;;;;;;;4.47;2.30;;;;;;;26.15;34.46;101718.69;5046797;28;20202;-82
2022/08/08 09:50:04;;;;;;;2.33;2.13;;;;;;;26.26;34.80;101714.72;5052217;28;20307;-81
2022/08/08 09:52:33;;;;;;;3.33;2.17;;;;;;;26.39;34.14;101716.94;5054726;28;20207;-83
2022/08/08 09:55:00;;;;;;;5.20;2.17;;;;;;;26.41;33.76;101710.28;5054548;28;20202;-82
2022/08/08 09:57:32;;;;;;;3.10;2.00;;;;;;;26.47;33.59;101706.88;5055043;28;20582;-83
2022/08/08 10:00:00;;;;;;;2.97;1.98;;;;;;;26.56;33.81;101707.66;5053903;28;20213;-83
2022/08/08 10:02:33;;;;;;;4.57;1.90;;;;;;;26.70;33.55;101708.81;5052615;28;20867;-83
2022/08/08 10:05:04;;;;;;;3.72;2.05;;;;;;;26.82;33.46;101705.53;5053327;28;20206;-83
2022/08/08 10:07:31;;;;;;;2.15;1.92;;;;;;;26.90;32.85;101702.75;5056970;28;20209;-81
2022/08/08 10:09:58;;;;;;;1.75;1.60;;;;;;;27.00;32.84;101704.47;5054445;28;20268;-83
2022/08/08 10:12:33;;;;;;;1.95;1.60;;;;;;;27.10;32.48;101705.06;5053988;28;20401;-81
2022/08/08 10:15:01;;;;;;;2.22;1.77;;;;;;;27.14;32.17;101700.94;5065577;28;20263;-81
2022/08/08 10:17:28;;;;;;;4.32;2.25;;;;;;;27.15;31.76;101698.03;5052078;28;20206;-81
2022/08/08 10:19:58;;;;;;;1.70;1.60;;;;;;;27.19;31.80;101701.28;5059692;28;20252;-80
2022/08/08 10:22:26;;;;;;;3.88;2.13;;;;;;;27.26;31.69;101696.75;5055603;28;20205;-82
2022/08/08 10:24:59;;;;;;;2.22;1.98;;;;;;;27.31;31.43;101697.09;5057064;28;20205;-83
2022/08/08 10:27:28;;;;;;;3.25;2.20;;;;;;;27.37;31.52;101693.63;5048647;28;20198;-82
2022/08/08 10:30:00;;;;;;;2.38;1.85;;;;;;;27.42;30.96;101693.91;5054613;28;20232;-83
2022/08/08 10:32:39;;;;;;;1.67;1.58;;;;;;;27.47;30.60;101691.50;5045868;28;20585;-82
2022/08/08 10:35:11;;;;;;;1.75;1.65;;;;;;;27.54;30.12;101694.38;5051724;28;20205;-82
2022/08/08 10:37:38;;;;;;;2.67;1.60;;;;;;;27.63;30.08;101687.81;5050938;28;20213;-83
2022/08/08 10:40:13;;;;;;;1.55;1.38;;;;;;;27.71;30.12;101689.63;5054065;28;20315;-82
2022/08/08 10:42:42;;;;;;;2.80;1.50;;;;;;;27.77;30.05;101686.19;5057650;28;20197;-82
2022/08/08 10:45:11;;;;;;;3.70;1.85;;;;;;;27.82;29.83;101683.72;5059383;28;20213;-83
2022/08/08 10:47:42;;;;;;;1.77;1.38;;;;;;;27.87;29.82;101684.88;5059781;28;20201;-82
2022/08/08 10:50:09;;;;;;;1.77;1.65;;;;;;;27.93;29.66;101694.25;5056967;28;20961;-84
2022/08/08 10:52:39;;;;;;;3.42;1.92;;;;;;;27.93;29.23;101683.28;5053522;28;20205;-82
2022/08/08 10:55:08;;;;;;;1.75;1.60;;;;;;;27.93;29.77;101686.03;5050352;28;20198;-82
2022/08/08 10:57:39;;;;;;;2.33;1.63;;;;;;;27.90;29.13;101680.91;5050532;28;20269;-82
2022/08/08 11:00:08;;;;;;;3.40;1.77;;;;;;;27.86;29.18;101679.56;5049849;28;20220;-82
2022/08/08 11:02:37;;;;;;;4.15;1.85;;;;;;;27.88;29.87;101675.63;5048291;28;20205;-82
2022/08/08 11:05:07;;;;;;;2.42;1.67;;;;;;;27.96;30.32;101678.25;5050625;28;20212;-82
2022/08/08 11:07:35;;;;;;;2.53;1.90;;;;;;;28.06;29.43;101674.44;5067598;28;20204;-83
2022/08/08 11:10:05;;;;;;;3.85;1.90;;;;;;;28.10;29.58;101673.88;5058236;28;20205;-82
2022/08/08 11:12:32;;;;;;;4.53;1.50;;;;;;;28.10;29.36;101673.03;5054547;28;20212;-84
2022/08/08 11:15:00;;;;;;;3.10;1.63;;;;;;;28.11;29.75;101671.97;5056945;28;20225;-82
2022/08/08 11:17:29;;;;;;;2.97;1.80;;;;;;;28.18;29.45;101675.66;5069885;28;20567;-83
2022/08/08 11:19:58;;;;;;;3.25;1.67;;;;;;;28.21;29.15;101675.31;5069818;28;20221;-83
2022/08/08 11:22:28;;;;;;;3.65;1.50;;;;;;;28.24;29.14;101675.81;5057547;28;20216;-84
2022/08/08 11:25:00;;;;;;;3.85;1.90;;;;;;;28.26;29.22;101676.47;5062657;28;20205;-82
2022/08/08 11:27:31;;;;;;;1.95;1.40;;;;;;;28.37;29.12;101677.03;5054420;28;20206;-83
2022/08/08 11:30:00;;;;;;;2.05;1.55;;;;;;;28.49;29.10;101678.25;5059239;28;20798;-83
2022/08/08 11:32:30;;;;;;;2.25;1.77;;;;;;;28.58;28.67;101682.59;5057576;28;20238;-82
2022/08/08 11:35:05;;;;;;;2.83;1.90;;;;;;;28.65;28.16;101667.09;5052558;28;20227;-83
2022/08/08 11:37:32;;;;;;;2.47;1.75;;;;;;;28.72;28.28;101676.25;5047229;28;20205;-82
2022/08/08 11:40:00;;;;;;;2.50;1.60;;;;;;;28.78;28.19;101672.75;5056180;28;20684;-82
2022/08/08 11:42:27;;;;;;;2.72;1.92;;;;;;;28.81;27.77;101669.66;5054892;28;20207;-83
2022/08/08 11:44:56;;;;;;;3.03;1.63;;;;;;;28.83;27.64;101667.56;5053265;28;20216;-84
2022/08/08 11:47:23;;;;;;;2.80;1.58;;;;;;;28.90;27.82;101663.00;5055550;28;20221;-83
2022/08/08 11:49:52;;;;;;;2.13;1.58;;;;;;;28.94;27.79;101660.72;5051561;28;20205;-83
2022/08/08 11:52:21;;;;;;;2.47;1.42;;;;;;;28.99;28.05;101661.88;5047363;28;20210;-83
2022/08/08 11:54:48;;;;;;;1.50;1.35;;;;;;;28.98;27.35;101665.66;5052575;28;20235;-83
2022/08/08 11:57:24;;;;;;;1.95;1.63;;;;;;;28.96;27.22;101665.00;5057849;28;20289;-87
2022/08/08 11:59:57;;;;;;;2.55;1.60;;;;;;;28.94;27.60;101661.59;5053736;28;20216;-83
2022/08/08 12:02:26;;;;;;;1.60;1.50;;;;;;;28.92;27.32;101660.94;5049378;28;20209;-83